Time;durP1;ratioP1;P1;durP2;ratioP2;P2;SDS_P1;SDS_P2;PMS_P1;PMS_P2;Temp;Humidity;BMP_temperature;BMP_pressure;BME280_temperature;BME280_humidity;BME280_pressure;Samples;Min_cycle;Max_cycle;Signal;HPM_P1;HPM_P2
2023/03/05 00:01:41;;;;;;;15.65;11.05;;;;;;;3.91;92.69;100173.38;10455543;28;20457;-84
2023/03/05 00:06:42;;;;;;;14.90;11.25;;;;;;;3.90;93.04;100158.59;10455631;28;20056;-84
2023/03/05 00:11:43;;;;;;;17.02;11.10;;;;;;;3.96;93.12;100184.34;10455508;28;20052;-84
2023/03/05 00:16:44;;;;;;;16.67;12.75;;;;;;;3.86;93.35;100186.09;10436869;28;20056;-85
2023/03/05 00:21:44;;;;;;;17.45;12.00;;;;;;;3.49;93.12;100146.28;10453688;28;20075;-84
2023/03/05 00:26:45;;;;;;;17.65;11.20;;;;;;;3.00;93.09;100080.31;10454290;28;20516;-85
2023/03/05 00:31:47;;;;;;;13.63;10.45;;;;;;;3.02;93.35;100093.28;10452788;28;20049;-85
2023/03/05 00:36:50;;;;;;;15.85;11.38;;;;;;;3.43;93.03;100161.59;10452685;28;20520;-85
2023/03/05 00:41:51;;;;;;;12.98;10.50;;;;;;;3.24;93.09;100129.13;10453358;28;20131;-85
2023/03/05 00:46:52;;;;;;;15.70;12.00;;;;;;;2.71;93.16;100067.75;10454160;28;20496;-85
2023/03/05 00:51:52;;;;;;;14.18;10.93;;;;;;;2.63;93.77;100067.56;10452778;28;20067;-85
2023/03/05 00:56:53;;;;;;;15.13;10.35;;;;;;;3.15;92.94;100157.78;10452761;28;20053;-85
2023/03/05 01:01:54;;;;;;;13.43;9.52;;;;;;;2.41;92.77;100046.63;10451973;28;20072;-85
2023/03/05 01:06:55;;;;;;;17.13;11.05;;;;;;;2.02;92.96;99991.19;10452374;28;20045;-84
2023/03/05 01:11:56;;;;;;;16.13;11.68;;;;;;;3.11;93.61;100166.88;10452868;28;20479;-85
2023/03/05 01:16:57;;;;;;;14.88;10.23;;;;;;;3.11;93.72;100156.38;10404138;28;1492553;-85
2023/03/05 01:21:58;;;;;;;14.60;11.10;;;;;;;3.27;93.84;100187.44;10462986;28;20168;-85
2023/03/05 01:26:59;;;;;;;13.15;10.20;;;;;;;3.08;93.65;100151.38;10444479;28;20060;-84
2023/03/05 01:32:01;;;;;;;15.35;11.05;;;;;;;2.91;92.97;100162.38;10462804;28;20467;-85
2023/03/05 01:37:01;;;;;;;16.58;11.50;;;;;;;2.88;93.76;100166.09;10461727;28;20045;-85
2023/03/05 01:42:03;;;;;;;15.10;11.55;;;;;;;2.29;94.09;100075.47;10462179;28;20049;-85
2023/03/05 01:47:04;;;;;;;15.15;11.52;;;;;;;2.73;94.53;100144.53;10461409;28;20049;-84
2023/03/05 01:52:16;;;;;;;17.20;10.75;;;;;;;2.94;94.43;100188.38;10461523;28;20041;-85
2023/03/05 01:57:25;;;;;;;15.18;11.25;;;;;;;2.03;94.96;100042.63;10443282;28;20103;-85
2023/03/05 02:02:26;;;;;;;19.77;11.68;;;;;;;2.84;95.36;100172.56;10442679;28;20513;-84
2023/03/05 02:07:29;;;;;;;14.82;9.25;;;;;;;2.85;95.26;100166.34;10460853;28;20060;-84
2023/03/05 02:12:30;;;;;;;15.50;11.18;;;;;;;2.34;94.27;100106.59;10461070;28;20053;-84
2023/03/05 02:17:31;;;;;;;19.13;12.40;;;;;;;2.43;95.19;100152.22;10460346;28;20060;-84
2023/03/05 02:22:33;;;;;;;15.95;10.77;;;;;;;1.69;94.95;100060.97;10460515;28;20064;-84
2023/03/05 02:27:33;;;;;;;16.40;11.02;;;;;;;2.13;94.57;100160.69;10459694;28;20052;-85
2023/03/05 02:32:34;;;;;;;23.75;14.02;;;;;;;1.83;95.18;100100.03;10459795;28;20068;-86
2023/03/05 02:37:35;;;;;;;42.60;26.02;;;;;;;2.25;94.79;100188.56;10458301;28;20486;-85
2023/03/05 02:42:36;;;;;;;24.38;15.32;;;;;;;1.72;94.46;100118.34;10460342;28;20045;-86
2023/03/05 02:47:37;;;;;;;20.10;13.80;;;;;;;0.63;94.36;99979.19;10459116;28;20049;-87
2023/03/05 02:52:38;;;;;;;15.75;11.77;;;;;;;1.89;94.84;100171.25;10459400;28;20381;-86
2023/03/05 02:57:38;;;;;;;17.10;11.52;;;;;;;1.71;96.44;100114.06;10458379;28;20044;-86
2023/03/05 03:02:39;;;;;;;22.23;11.68;;;;;;;1.29;97.12;100043.09;10441277;28;20160;-86
2023/03/05 03:07:40;;;;;;;16.20;11.85;;;;;;;2.27;96.94;100168.28;10458422;28;20053;-87
2023/03/05 03:12:43;;;;;;;35.05;11.30;;;;;;;2.17;96.90;100159.47;10458712;28;20115;-87
2023/03/05 03:17:44;;;;;;;16.05;11.10;;;;;;;1.55;96.42;100071.66;10439728;28;20509;-87
2023/03/05 03:22:46;;;;;;;17.65;10.70;;;;;;;0.80;96.05;99952.59;10457326;28;20049;-87
2023/03/05 03:27:46;;;;;;;14.85;10.68;;;;;;;1.18;96.01;100027.34;10440729;28;20079;-87
2023/03/05 03:32:47;;;;;;;17.92;10.05;;;;;;;0.01;96.10;99851.41;10457962;28;20087;-88
2023/03/05 03:37:48;;;;;;;15.57;10.15;;;;;;;1.99;96.00;100166.97;10456338;28;20045;-88
2023/03/05 03:42:52;;;;;;;16.33;10.40;;;;;;;1.86;95.39;100145.28;10456362;28;20556;-88
2023/03/05 03:47:53;;;;;;;23.13;12.77;;;;;;;1.11;94.84;100050.53;10438723;28;20063;-87
2023/03/05 03:52:54;;;;;;;20.67;12.27;;;;;;;1.87;95.60;100163.50;10438420;28;20524;-87
2023/03/05 03:57:54;;;;;;;13.63;10.15;;;;;;;1.35;94.97;100068.78;10457469;28;20049;-88
2023/03/05 04:02:55;;;;;;;17.63;11.25;;;;;;;0.94;94.56;99995.19;10456975;28;20138;-87
2023/03/05 04:07:57;;;;;;;17.10;11.55;;;;;;;1.75;95.45;100123.34;10438001;28;20048;-86
2023/03/05 04:12:58;;;;;;;17.67;10.38;;;;;;;2.12;95.32;100145.91;10439709;28;20505;-87
2023/03/05 04:17:58;;;;;;;17.95;11.27;;;;;;;1.52;94.97;100011.69;10455133;28;20063;-86
2023/03/05 04:22:59;;;;;;;15.65;10.98;;;;;;;2.80;94.36;100155.38;10447888;28;20048;-82
2023/03/05 04:28:00;;;;;;;14.70;11.00;;;;;;;2.59;94.31;100076.63;10425201;28;20057;-84
2023/03/05 04:33:01;;;;;;;12.95;10.27;;;;;;;3.11;94.25;100108.28;10412814;28;20052;-84
2023/03/05 04:38:02;;;;;;;15.80;9.98;;;;;;;3.53;93.82;100139.81;10414121;28;20107;-84
2023/03/05 04:43:03;;;;;;;14.55;10.30;;;;;;;3.40;93.50;100109.31;10415392;28;20141;-85
2023/03/05 04:48:04;;;;;;;14.00;10.00;;;;;;;3.89;93.57;100177.97;10440413;28;20460;-84
2023/03/05 04:53:05;;;;;;;14.75;9.35;;;;;;;4.19;93.96;100181.56;10442807;28;20099;-84
2023/03/05 04:58:06;;;;;;;16.55;9.65;;;;;;;4.19;92.91;100100.06;10421816;28;20046;-84
2023/03/05 05:03:07;;;;;;;14.43;9.90;;;;;;;3.52;91.87;99944.63;10429756;28;20057;-83
2023/03/05 05:08:09;;;;;;;12.30;8.65;;;;;;;5.20;91.19;100152.47;10450814;28;20050;-83
2023/03/05 05:13:10;;;;;;;12.25;8.13;;;;;;;5.02;90.41;100062.81;10415983;28;20460;-83
2023/03/05 05:18:10;;;;;;;9.85;7.50;;;;;;;5.82;89.85;100125.81;10416570;28;20119;-83
2023/03/05 05:23:12;;;;;;;11.40;7.82;;;;;;;6.32;89.31;100158.00;10415358;28;20058;-82
2023/03/05 05:28:12;;;;;;;10.48;7.38;;;;;;;5.69;88.45;100029.44;10414018;28;20049;-83
2023/03/05 05:33:14;;;;;;;9.95;7.20;;;;;;;6.65;87.46;100186.63;10412835;28;20041;-83
2023/03/05 05:38:15;;;;;;;10.75;6.78;;;;;;;5.41;87.89;99967.94;10395377;28;20068;-84
2023/03/05 05:43:16;;;;;;;12.95;7.80;;;;;;;6.26;87.57;100105.00;10412809;28;20052;-83
2023/03/05 05:48:17;;;;;;;10.35;7.22;;;;;;;6.85;87.13;100186.38;10412755;28;20061;-85
2023/03/05 05:53:17;;;;;;;10.23;7.03;;;;;;;6.88;87.08;100163.28;10413556;28;20045;-83
2023/03/05 05:58:18;;;;;;;10.95;6.72;;;;;;;6.11;86.51;100033.44;10422756;28;20127;-84
2023/03/05 06:03:19;;;;;;;16.42;7.63;;;;;;;7.07;85.95;100150.78;10421903;28;20053;-85
2023/03/05 06:08:20;;;;;;;11.88;6.70;;;;;;;6.37;85.45;100017.72;10412703;28;20061;-87
2023/03/05 06:13:21;;;;;;;10.00;7.32;;;;;;;6.26;84.63;99996.84;10419178;28;20525;-84
2023/03/05 06:18:22;;;;;;;10.30;6.97;;;;;;;7.13;84.98;100107.09;10420690;28;20061;-78
2023/03/05 06:23:24;;;;;;;11.32;6.50;;;;;;;7.74;84.35;100177.63;10421895;28;20452;-85
2023/03/05 06:28:24;;;;;;;10.95;7.03;;;;;;;7.30;83.96;100053.41;10420969;28;20110;-89
2023/03/05 06:33:25;;;;;;;10.93;7.68;;;;;;;8.16;82.68;100131.94;10426139;28;20187;-90
2023/03/05 06:38:26;;;;;;;9.40;6.75;;;;;;;8.39;82.11;100120.81;10429239;28;20544;-87
2023/03/05 06:43:26;;;;;;;10.93;7.18;;;;;;;8.93;80.92;100129.25;10422713;28;20139;-91
2023/03/05 06:48:27;;;;;;;11.57;6.90;;;;;;;9.24;80.17;100128.63;10427929;28;20113;-90
2023/03/05 06:53:28;;;;;;;15.38;7.60;;;;;;;9.32;78.54;100105.63;10424598;28;20142;-91
2023/03/05 06:58:29;;;;;;;11.05;6.55;;;;;;;9.21;77.33;99964.66;10419607;28;20128;-84
2023/03/05 07:03:30;;;;;;;13.73;7.43;;;;;;;11.16;75.87;100124.09;10420376;28;20053;-82
2023/03/05 07:08:31;;;;;;;11.38;7.20;;;;;;;11.21;74.83;100076.53;10437456;28;20075;-84
2023/03/05 07:13:32;;;;;;;11.20;6.75;;;;;;;11.82;72.70;100101.25;10406066;28;20413;-85
2023/03/05 07:18:33;;;;;;;8.98;5.93;;;;;;;11.48;71.17;100023.75;10451346;28;20063;-86
2023/03/05 07:23:34;;;;;;;7.47;4.63;;;;;;;11.93;68.56;100067.22;10402410;28;20452;-80
2023/03/05 07:28:35;;;;;;;8.30;4.95;;;;;;;12.42;67.59;100104.75;10419363;28;20103;-89
2023/03/05 07:33:36;;;;;;;8.02;4.40;;;;;;;12.58;65.83;100050.44;10416447;28;20049;-83
2023/03/05 07:38:37;;;;;;;7.97;5.47;;;;;;;13.18;63.90;100059.84;10417211;28;20490;-83
2023/03/05 07:43:39;;;;;;;10.30;4.53;;;;;;;13.39;62.21;100085.69;10414766;28;20421;-80
2023/03/05 07:48:40;;;;;;;7.32;4.35;;;;;;;13.21;61.36;100056.78;10400233;28;20054;-81
2023/03/05 07:53:45;;;;;;;6.88;3.95;;;;;;;13.18;59.29;100035.84;10413436;28;20076;-82
2023/03/05 07:58:46;;;;;;;16.75;4.50;;;;;;;13.14;59.35;100033.75;10414737;28;20049;-84
2023/03/05 08:03:47;;;;;;;8.20;5.25;;;;;;;13.27;59.28;100036.56;10409557;28;20041;-83
2023/03/05 08:08:48;;;;;;;8.50;5.03;;;;;;;13.42;60.14;100039.13;10422505;28;20149;-77
2023/03/05 08:13:48;;;;;;;10.05;5.10;;;;;;;12.92;60.33;99921.81;10410910;28;20057;-81
2023/03/05 08:18:52;;;;;;;7.43;4.80;;;;;;;13.16;59.85;100029.88;10419244;28;20595;-83
2023/03/05 08:23:54;;;;;;;8.70;4.95;;;;;;;13.06;60.07;100044.56;10413107;28;20049;-81
2023/03/05 08:28:55;;;;;;;8.75;4.63;;;;;;;12.91;61.26;100021.44;10393914;28;20440;-80
2023/03/05 08:33:58;;;;;;;7.35;3.20;;;;;;;12.93;59.04;100018.59;10415031;28;20052;-81
2023/03/05 08:38:59;;;;;;;6.88;3.20;;;;;;;12.48;58.67;99946.00;10413874;28;20060;-79
2023/03/05 08:43:59;;;;;;;5.78;3.30;;;;;;;12.69;58.16;99988.66;10409128;28;20664;-81
2023/03/05 08:49:00;;;;;;;5.93;3.05;;;;;;;12.69;58.72;100017.13;10410389;28;20459;-80
2023/03/05 08:54:05;;;;;;;5.53;3.33;;;;;;;12.05;58.28;99948.59;10416453;28;20037;-80
2023/03/05 08:59:07;;;;;;;5.70;3.00;;;;;;;12.45;59.32;100013.00;10407412;28;20544;-81
2023/03/05 09:04:08;;;;;;;6.45;3.42;;;;;;;12.43;59.58;99969.72;10412654;28;20052;-81
2023/03/05 09:09:09;;;;;;;5.43;3.53;;;;;;;12.26;58.78;99899.88;10415162;28;20038;-82
2023/03/05 09:14:10;;;;;;;5.55;3.22;;;;;;;13.02;58.81;100009.44;10413939;28;20046;-81
2023/03/05 09:19:11;;;;;;;5.40;3.00;;;;;;;12.61;59.28;99908.81;10409560;28;20053;-80
2023/03/05 09:24:12;;;;;;;4.50;2.95;;;;;;;13.16;58.26;99986.38;10411748;28;20049;-84
2023/03/05 09:29:13;;;;;;;5.55;3.35;;;;;;;12.70;58.00;99889.00;10408124;28;20516;-84
2023/03/05 09:34:14;;;;;;;5.22;3.00;;;;;;;13.20;58.25;99953.78;10412581;28;20045;-83
2023/03/05 09:39:15;;;;;;;5.20;2.97;;;;;;;13.54;57.64;100004.72;10421431;28;20055;-82
2023/03/05 09:44:28;;;;;;;8.32;3.05;;;;;;;13.95;56.96;99993.25;10426511;28;20041;-81
2023/03/05 09:49:54;;;;;;;5.65;3.28;;;;;;;14.25;55.30;99948.38;10407206;28;20057;-81
2023/03/05 09:54:56;;;;;;;6.40;3.40;;;;;;;14.12;56.23;99917.13;10426051;28;20098;-82
2023/03/05 10:00:04;;;;;;;6.75;3.80;;;;;;;14.04;56.43;99931.47;10443610;28;20062;-83
2023/03/05 10:05:18;;;;;;;6.18;4.00;;;;;;;14.51;56.02;99948.47;10421890;28;20531;-81
2023/03/05 10:10:34;;;;;;;9.50;4.25;;;;;;;14.46;55.47;99928.69;10460424;28;20057;-81
2023/03/05 10:15:50;;;;;;;5.35;3.65;;;;;;;14.09;56.48;99914.81;10448893;28;20046;-81
2023/03/05 10:21:23;;;;;;;8.43;4.10;;;;;;;13.99;57.25;99930.41;10419021;28;20060;-81
2023/03/05 10:26:47;;;;;;;7.47;3.97;;;;;;;13.63;58.18;99934.16;10374677;28;20143;-81
2023/03/05 10:32:11;;;;;;;5.95;3.70;;;;;;;13.53;57.69;99937.19;10418510;28;20045;-81
2023/03/05 10:37:18;;;;;;;8.90;6.18;;;;;;;13.52;57.74;99935.56;10419378;28;20052;-81
2023/03/05 10:42:24;;;;;;;7.90;4.43;;;;;;;13.08;58.07;99866.53;10417479;28;20139;-82
2023/03/05 10:47:46;;;;;;;6.72;3.47;;;;;;;13.10;57.94;99869.81;10416951;28;20092;-82
2023/03/05 10:53:00;;;;;;;9.05;4.28;;;;;;;13.72;57.74;99932.16;10417695;28;20069;-82
2023/03/05 10:58:11;;;;;;;7.10;4.90;;;;;;;14.07;56.27;99915.03;10416568;28;20045;-82
2023/03/05 11:03:11;;;;;;;9.00;5.60;;;;;;;13.66;55.92;99822.47;10416709;28;20574;-82
2023/03/05 11:08:31;;;;;;;5.55;3.38;;;;;;;14.35;54.71;99900.69;10416561;28;20136;-81
2023/03/05 11:13:32;;;;;;;6.75;3.30;;;;;;;14.58;54.68;99917.22;10399937;28;20056;-83
2023/03/05 11:18:33;;;;;;;4.97;3.10;;;;;;;14.54;53.94;99899.13;10416516;28;20060;-82
2023/03/05 11:23:34;;;;;;;5.72;3.28;;;;;;;14.74;53.59;99915.16;10416297;28;20053;-81
2023/03/05 11:28:56;;;;;;;8.57;3.60;;;;;;;14.83;53.25;99933.44;10416312;28;20092;-83
2023/03/05 11:34:00;;;;;;;5.95;3.92;;;;;;;14.69;53.11;99926.47;10416527;28;20049;-83
2023/03/05 11:39:06;;;;;;;6.68;3.80;;;;;;;14.69;52.80;99918.47;10416478;28;20506;-81
2023/03/05 11:44:24;;;;;;;11.05;4.07;;;;;;;14.69;53.15;99918.47;10414048;28;20071;-89
2023/03/05 11:49:30;;;;;;;20.77;13.73;;;;;;;14.24;52.26;99839.84;10395440;28;20425;-88
2023/03/05 11:54:53;;;;;;;7.82;4.82;;;;;;;14.19;53.86;99909.13;10410282;28;20148;-88
2023/03/05 11:59:57;;;;;;;9.70;4.57;;;;;;;12.45;55.16;99738.59;10413672;28;20049;-88
2023/03/05 12:05:02;;;;;;;7.93;4.40;;;;;;;12.77;56.32;99887.25;10392872;28;20041;-86
2023/03/05 12:10:04;;;;;;;7.18;4.30;;;;;;;12.05;57.20;99789.69;10410482;28;20099;-87
2023/03/05 12:15:16;;;;;;;7.25;4.13;;;;;;;13.31;57.83;99940.94;10409779;28;20404;-88
2023/03/05 12:20:46;;;;;;;7.05;4.35;;;;;;;13.66;56.08;99915.09;10410598;28;20409;-87
2023/03/05 12:25:54;;;;;;;12.00;5.90;;;;;;;13.65;56.25;99900.09;10392429;28;20456;-87
2023/03/05 12:31:07;;;;;;;16.52;8.35;;;;;;;13.33;56.52;99846.38;10395359;28;20493;-86
2023/03/05 12:36:20;;;;;;;25.35;17.33;;;;;;;13.74;56.20;99903.41;10407148;28;20045;-85
2023/03/05 12:41:21;;;;;;;19.23;11.57;;;;;;;13.40;56.67;99894.41;10414721;28;20088;-85
2023/03/05 12:46:27;;;;;;;22.02;11.38;;;;;;;13.56;56.36;99918.13;10408768;28;20107;-83
2023/03/05 12:51:38;;;;;;;10.45;5.40;;;;;;;12.81;57.05;99807.72;10407586;28;20180;-84
2023/03/05 12:56:43;;;;;;;10.38;5.40;;;;;;;13.31;57.72;99888.44;10410915;28;20636;-86
2023/03/05 13:01:50;;;;;;;10.75;5.57;;;;;;;12.60;58.09;99771.28;10393155;28;20067;-86
2023/03/05 13:07:03;;;;;;;8.90;4.65;;;;;;;12.74;57.81;99796.16;10391262;28;20563;-84
2023/03/05 13:12:12;;;;;;;7.55;4.97;;;;;;;12.72;58.20;99776.91;10411280;28;20382;-84
2023/03/05 13:17:37;;;;;;;9.73;5.82;;;;;;;13.27;58.98;99867.69;10416461;28;20057;-85
2023/03/05 13:22:38;;;;;;;11.90;5.30;;;;;;;12.86;58.84;99833.75;10420662;28;20536;-86
2023/03/05 13:27:38;;;;;;;9.70;6.35;;;;;;;12.33;59.30;99755.13;10416523;28;20191;-87
2023/03/05 13:32:41;;;;;;;87.68;48.80;;;;;;;12.64;59.49;99815.16;10416096;28;20068;-85
2023/03/05 13:37:44;;;;;;;11.50;6.88;;;;;;;11.95;60.23;99727.16;10420933;28;20064;-84
2023/03/05 13:42:45;;;;;;;12.65;6.88;;;;;;;12.56;60.76;99847.28;10394681;28;20045;-79
2023/03/05 13:48:03;;;;;;;15.07;7.88;;;;;;;12.09;61.09;99788.31;10415549;28;20406;-83
2023/03/05 13:53:33;;;;;;;11.00;6.82;;;;;;;12.18;61.42;99844.94;10397800;28;20465;-81
2023/03/05 13:58:53;;;;;;;15.23;6.45;;;;;;;11.73;62.40;99796.34;10396590;28;20507;-78
2023/03/05 14:04:16;;;;;;;14.25;6.93;;;;;;;11.94;62.36;99859.44;10413531;28;20045;-77
2023/03/05 14:09:24;;;;;;;12.23;6.30;;;;;;;11.54;63.45;99820.88;10419236;28;20053;-76
2023/03/05 14:14:27;;;;;;;15.18;8.82;;;;;;;11.17;63.28;99785.47;10414896;28;20514;-75
2023/03/05 14:19:38;;;;;;;12.60;7.78;;;;;;;11.56;64.52;99870.22;10415123;28;20061;-80
2023/03/05 14:24:39;;;;;;;14.85;7.35;;;;;;;11.33;64.19;99854.38;10416351;28;20049;-75
2023/03/05 14:29:45;;;;;;;9.13;6.60;;;;;;;10.78;65.20;99812.31;10418365;28;20061;-78
2023/03/05 14:34:51;;;;;;;20.38;13.82;;;;;;;10.80;65.84;99856.31;10418110;28;20457;-78
2023/03/05 14:39:55;;;;;;;12.60;8.30;;;;;;;10.66;65.98;99860.56;10418084;28;20212;-78
2023/03/05 14:45:17;;;;;;;11.98;7.30;;;;;;;10.52;67.05;99871.97;10398746;28;20045;-79
2023/03/05 14:50:30;;;;;;;16.45;9.45;;;;;;;10.27;68.48;99866.06;10415542;28;20045;-76
2023/03/05 14:55:31;;;;;;;23.90;8.50;;;;;;;9.79;68.70;99831.69;10417939;28;20077;-81
2023/03/05 15:00:32;;;;;;;14.43;8.25;;;;;;;9.32;69.14;99782.22;10417127;28;20045;-82
2023/03/05 15:05:33;;;;;;;11.57;7.20;;;;;;;8.94;69.92;99754.72;10417342;28;20052;-82
2023/03/05 15:10:33;;;;;;;15.00;8.43;;;;;;;9.08;70.74;99799.06;10417809;28;20049;-82
2023/03/05 15:15:34;;;;;;;12.07;7.78;;;;;;;8.90;71.45;99807.25;10417286;28;20049;-82
2023/03/05 15:20:37;;;;;;;12.38;8.10;;;;;;;8.81;72.13;99810.91;10417135;28;20494;-82
2023/03/05 15:25:47;;;;;;;18.92;13.93;;;;;;;8.52;75.08;99777.03;10417172;28;20065;-81
2023/03/05 15:30:48;;;;;;;25.40;10.50;;;;;;;7.59;73.30;99650.47;10416806;28;20176;-81
2023/03/05 15:35:49;;;;;;;26.48;16.92;;;;;;;8.35;73.55;99797.41;10415140;28;20620;-77
2023/03/05 15:40:50;;;;;;;28.27;13.45;;;;;;;8.60;74.74;99872.34;10415980;28;20053;-79
2023/03/05 15:45:51;;;;;;;18.33;10.52;;;;;;;7.58;75.00;99743.97;10415311;28;20096;-78
2023/03/05 15:50:52;;;;;;;22.98;12.68;;;;;;;7.58;75.48;99765.13;10427388;28;20140;-78
2023/03/05 15:55:53;;;;;;;21.33;12.20;;;;;;;7.62;76.58;99802.63;10414772;28;20049;-77
2023/03/05 16:00:54;;;;;;;30.42;12.20;;;;;;;7.51;76.92;99827.56;10415184;28;20053;-78
2023/03/05 16:05:54;;;;;;;24.48;12.73;;;;;;;7.97;77.56;99899.41;10417571;28;20049;-78
2023/03/05 16:10:55;;;;;;;19.90;10.35;;;;;;;7.25;78.09;99798.56;10448317;28;20053;-78
2023/03/05 16:15:57;;;;;;;28.23;10.38;;;;;;;6.84;79.16;99756.97;10433604;28;20107;-77
2023/03/05 16:20:58;;;;;;;18.08;9.68;;;;;;;7.39;79.62;99853.47;10414328;28;20049;-77
2023/03/05 16:25:59;;;;;;;16.30;9.63;;;;;;;7.59;80.37;99912.16;10414302;28;20049;-76
2023/03/05 16:31:00;;;;;;;15.10;9.07;;;;;;;7.17;80.70;99852.19;10414735;28;20081;-78
2023/03/05 16:36:10;;;;;;;14.43;8.35;;;;;;;7.29;84.01;99902.94;10414102;28;20096;-76
2023/03/05 16:41:15;;;;;;;16.63;9.43;;;;;;;6.92;82.98;99877.66;10413147;28;20069;-79
2023/03/05 16:46:16;;;;;;;19.15;10.68;;;;;;;7.01;82.53;99889.91;10344122;28;20108;-76
2023/03/05 16:51:17;;;;;;;22.13;11.07;;;;;;;7.05;83.13;99896.53;10370177;28;20085;-78
2023/03/05 16:56:18;;;;;;;19.52;10.80;;;;;;;6.62;83.07;99858.66;10371661;28;20069;-77
2023/03/05 17:01:19;;;;;;;21.65;10.23;;;;;;;5.35;83.43;99673.50;10372701;28;20061;-76
2023/03/05 17:06:23;;;;;;;18.60;10.32;;;;;;;5.93;84.22;99767.94;10371989;28;20418;-77
2023/03/05 17:11:24;;;;;;;22.60;12.30;;;;;;;6.63;84.28;99888.50;10372806;28;20057;-77
2023/03/05 17:16:25;;;;;;;27.23;11.98;;;;;;;6.70;84.69;99902.75;10376261;28;20186;-77
2023/03/05 17:21:26;;;;;;;21.23;12.55;;;;;;;6.11;84.35;99839.13;10411941;28;20152;-77
2023/03/05 17:26:31;;;;;;;20.40;10.50;;;;;;;6.48;85.96;99893.50;10413437;28;20115;-77
2023/03/05 17:31:32;;;;;;;16.88;9.70;;;;;;;5.79;85.18;99771.06;10413430;28;20046;-76
2023/03/05 17:36:33;;;;;;;21.08;10.40;;;;;;;6.06;85.54;99835.28;10413275;28;20563;-77
2023/03/05 17:41:34;;;;;;;27.45;10.75;;;;;;;6.10;85.93;99834.84;10412461;28;20075;-77
2023/03/05 17:46:35;;;;;;;23.27;12.10;;;;;;;5.97;86.43;99815.09;10412827;28;20046;-78
2023/03/05 17:51:36;;;;;;;17.98;10.65;;;;;;;4.93;87.15;99655.66;10413030;28;20555;-78
2023/03/05 17:56:37;;;;;;;19.60;11.45;;;;;;;5.41;87.07;99746.66;10413168;28;20096;-78
2023/03/05 18:01:38;;;;;;;18.42;10.95;;;;;;;5.62;87.58;99791.16;10419371;28;20057;-78
2023/03/05 18:06:39;;;;;;;20.77;11.75;;;;;;;5.44;87.75;99785.91;10418939;28;20042;-78
2023/03/05 18:11:39;;;;;;;22.48;10.90;;;;;;;6.03;87.84;99875.13;10419601;28;20057;-78
2023/03/05 18:16:40;;;;;;;17.83;10.25;;;;;;;5.00;87.75;99698.03;10419180;28;20053;-78
2023/03/05 18:21:42;;;;;;;16.02;10.75;;;;;;;5.34;88.91;99750.88;10418641;28;20080;-78
2023/03/05 18:26:43;;;;;;;17.38;10.02;;;;;;;6.00;88.86;99849.06;10418873;28;20052;-78
2023/03/05 18:31:44;;;;;;;27.17;11.35;;;;;;;5.94;89.44;99832.88;10401330;28;20398;-78
2023/03/05 18:36:44;;;;;;;16.45;10.27;;;;;;;5.78;88.90;99794.97;10418522;28;20045;-78
2023/03/05 18:41:46;;;;;;;21.95;11.73;;;;;;;5.66;89.46;99752.19;10418362;28;20107;-78
2023/03/05 18:46:47;;;;;;;21.73;12.93;;;;;;;4.70;89.51;99613.19;10418515;28;20056;-78
2023/03/05 18:51:48;;;;;;;19.55;10.50;;;;;;;5.89;90.45;99787.66;10418754;28;20532;-78
2023/03/05 18:56:49;;;;;;;32.63;11.60;;;;;;;5.99;90.41;99805.22;10418375;28;20049;-77
2023/03/05 19:01:49;;;;;;;19.75;11.68;;;;;;;4.27;89.29;99529.69;10416543;28;20127;-78
2023/03/05 19:06:50;;;;;;;19.88;11.05;;;;;;;4.95;89.65;99658.16;10417135;28;20049;-78
2023/03/05 19:11:51;;;;;;;19.15;10.57;;;;;;;6.10;89.49;99842.75;10416823;28;20052;-77
2023/03/05 19:16:52;;;;;;;21.55;10.95;;;;;;;5.08;89.82;99660.44;10416669;28;20056;-78
2023/03/05 19:21:58;;;;;;;17.55;10.95;;;;;;;5.25;89.96;99699.13;10417158;28;20045;-78
2023/03/05 19:27:00;;;;;;;21.30;12.50;;;;;;;5.94;89.83;99813.59;10418269;28;20425;-78
2023/03/05 19:32:01;;;;;;;19.77;11.38;;;;;;;6.10;90.36;99845.38;10425321;28;20050;-79
2023/03/05 19:37:02;;;;;;;18.17;11.40;;;;;;;4.95;89.32;99616.88;10412929;28;20050;-78
2023/03/05 19:42:03;;;;;;;28.60;16.27;;;;;;;6.14;89.91;99817.72;10404073;28;20073;-78
2023/03/05 19:47:04;;;;;;;26.15;14.57;;;;;;;6.13;90.21;99810.81;10439499;28;20083;-79
2023/03/05 19:52:05;;;;;;;24.05;14.02;;;;;;;5.47;89.84;99703.94;10415596;28;20049;-78
2023/03/05 19:57:06;;;;;;;26.52;16.23;;;;;;;6.04;89.95;99805.59;10428300;28;20424;-79
2023/03/05 20:02:10;;;;;;;31.10;18.17;;;;;;;5.92;90.81;99787.34;10415760;28;20510;-79
2023/03/05 20:07:11;;;;;;;30.48;14.60;;;;;;;5.95;90.54;99780.97;10415114;28;20104;-79
2023/03/05 20:12:11;;;;;;;18.40;12.35;;;;;;;5.49;89.85;99712.50;10414303;28;20472;-79
2023/03/05 20:17:13;;;;;;;28.25;17.23;;;;;;;4.69;89.65;99573.84;10414643;28;20144;-78
2023/03/05 20:22:14;;;;;;;30.60;16.45;;;;;;;5.85;90.28;99757.28;10413510;28;20092;-78
2023/03/05 20:27:14;;;;;;;35.22;17.40;;;;;;;5.29;89.57;99653.06;10414714;28;20156;-78
2023/03/05 20:32:15;;;;;;;29.30;17.45;;;;;;;5.99;89.88;99750.69;10414346;28;20131;-78
2023/03/05 20:38:19;;;;;;;41.45;19.80;;;;;;;5.37;91.97;99634.69;10414119;28;20056;-80
2023/03/05 20:43:22;;;;;;;40.78;20.13;;;;;;;5.80;89.77;99730.56;10402904;28;20057;-78
2023/03/05 20:48:27;;;;;;;35.53;16.00;;;;;;;4.75;89.61;99565.34;10413744;28;20053;-78
2023/03/05 20:53:28;;;;;;;30.00;16.75;;;;;;;4.93;89.97;99597.75;10414266;28;20049;-79
2023/03/05 20:58:28;;;;;;;29.90;15.80;;;;;;;5.24;90.12;99644.81;10411678;28;20053;-79
2023/03/05 21:03:29;;;;;;;32.97;16.05;;;;;;;5.63;89.87;99718.25;10413796;28;20045;-78
2023/03/05 21:08:30;;;;;;;30.42;13.80;;;;;;;5.34;90.01;99684.22;10395606;28;20085;-78
2023/03/05 21:13:32;;;;;;;20.52;11.57;;;;;;;5.32;90.38;99673.00;10413691;28;20041;-79
2023/03/05 21:18:33;;;;;;;20.85;11.13;;;;;;;5.86;91.27;99729.97;10413391;28;20576;-79
2023/03/05 21:23:34;;;;;;;17.25;9.68;;;;;;;4.50;91.33;99514.31;10413078;28;20144;-80
2023/03/05 21:28:35;;;;;;;23.77;14.18;;;;;;;5.76;92.03;99689.69;10412945;28;20053;-78
2023/03/05 21:33:36;;;;;;;21.20;11.48;;;;;;;5.81;91.77;99689.22;10416488;28;20506;-78
2023/03/05 21:38:37;;;;;;;18.90;9.90;;;;;;;4.84;91.46;99537.31;10420701;28;20148;-79
2023/03/05 21:43:37;;;;;;;38.42;20.25;;;;;;;5.86;92.28;99690.44;10420755;28;20115;-79
2023/03/05 21:48:38;;;;;;;30.13;15.73;;;;;;;4.85;92.02;99502.16;10402482;28;20049;-78
2023/03/05 21:53:39;;;;;;;32.65;16.70;;;;;;;5.21;91.96;99540.59;10419888;28;20083;-78
2023/03/05 21:58:39;;;;;;;20.98;12.85;;;;;;;6.01;91.59;99663.50;10419996;28;20064;-78
2023/03/05 22:03:40;;;;;;;24.90;12.43;;;;;;;5.39;91.52;99548.47;10419973;28;20042;-78
2023/03/05 22:08:41;;;;;;;23.17;10.95;;;;;;;5.90;91.46;99636.41;10419702;28;20050;-78
2023/03/05 22:13:42;;;;;;;18.38;9.98;;;;;;;5.06;91.77;99478.13;10420068;28;20096;-78
2023/03/05 22:18:43;;;;;;;15.40;10.13;;;;;;;5.98;91.60;99637.47;10418949;28;20131;-78
2023/03/05 22:23:44;;;;;;;20.10;10.18;;;;;;;5.46;91.89;99573.19;10418850;28;20139;-79
2023/03/05 22:28:45;;;;;;;22.23;11.77;;;;;;;5.98;92.77;99627.75;10418566;28;20104;-78
2023/03/05 22:33:46;;;;;;;32.10;16.85;;;;;;;5.92;93.70;99602.81;10418724;28;20060;-78
2023/03/05 22:38:47;;;;;;;22.67;13.63;;;;;;;5.28;93.04;99489.94;10418303;28;20050;-79
2023/03/05 22:43:49;;;;;;;15.95;9.88;;;;;;;5.41;93.17;99508.78;10417817;28;20049;-78
2023/03/05 22:48:50;;;;;;;16.85;9.85;;;;;;;5.46;93.82;99520.50;10400233;28;20042;-80
2023/03/05 22:53:51;;;;;;;14.63;8.65;;;;;;;5.91;93.42;99573.97;10400577;28;20513;-78
2023/03/05 22:58:52;;;;;;;13.27;7.75;;;;;;;5.63;93.47;99533.81;10418118;28;20087;-78
2023/03/05 23:04:01;;;;;;;13.80;7.05;;;;;;;5.76;93.92;99533.38;10418188;28;20049;-79
2023/03/05 23:09:02;;;;;;;15.57;8.23;;;;;;;5.69;93.69;99491.00;10416982;28;20050;-78
2023/03/05 23:14:03;;;;;;;14.10;7.30;;;;;;;6.08;93.92;99536.19;10418415;28;20076;-79